Time;durP1;ratioP1;P1;durP2;ratioP2;P2;SDS_P1;SDS_P2;PMS_P1;PMS_P2;Temp;Humidity;BMP_temperature;BMP_pressure;BME280_temperature;BME280_humidity;BME280_pressure;Samples;Min_cycle;Max_cycle;Signal;HPM_P1;HPM_P2
2022/04/04 00:02:15;;;;;;;8.98;4.53;;;;;;;-2.01;44.01;98494.47;5052532;28;20074;-55
2022/04/04 00:04:41;;;;;;;9.25;4.75;;;;;;;-2.06;44.55;98497.31;5052009;28;20040;-55
2022/04/04 00:07:07;;;;;;;7.32;4.35;;;;;;;-2.07;43.11;98495.63;5070393;28;20443;-58
2022/04/04 00:09:32;;;;;;;9.57;4.43;;;;;;;-2.11;43.38;98488.84;5070413;28;20039;-53
2022/04/04 00:11:58;;;;;;;9.60;4.30;;;;;;;-2.21;43.82;98474.50;5070001;28;20033;-56
2022/04/04 00:14:24;;;;;;;7.82;4.47;;;;;;;-2.25;44.02;98484.28;5070123;28;20378;-54
2022/04/04 00:16:50;;;;;;;7.97;4.18;;;;;;;-2.26;44.23;98484.38;5070520;28;20025;-53
2022/04/04 00:19:15;;;;;;;11.98;4.15;;;;;;;-2.24;44.38;98493.00;5070052;28;20051;-52
2022/04/04 00:21:41;;;;;;;6.25;4.18;;;;;;;-2.33;44.52;98487.28;5073758;28;20238;-53
2022/04/04 00:24:07;;;;;;;9.85;4.60;;;;;;;-2.26;45.22;98498.31;5074607;28;20075;-52
2022/04/04 00:26:32;;;;;;;7.57;4.22;;;;;;;-2.25;45.43;98497.41;5074084;28;20060;-55
2022/04/04 00:28:58;;;;;;;7.53;4.22;;;;;;;-2.33;45.65;98495.16;5074489;28;20501;-56
2022/04/04 00:31:24;;;;;;;7.65;4.30;;;;;;;-2.25;46.04;98505.25;5073215;28;20032;-53
2022/04/04 00:33:49;;;;;;;9.80;4.78;;;;;;;-2.21;46.01;98504.19;5073928;28;20126;-54
2022/04/04 00:36:15;;;;;;;8.60;4.03;;;;;;;-2.20;46.07;98505.88;5074221;28;20438;-54
2022/04/04 00:38:41;;;;;;;7.45;4.43;;;;;;;-2.22;46.29;98504.28;5074345;28;20040;-53
2022/04/04 00:41:11;;;;;;;9.45;4.72;;;;;;;-2.22;46.62;98512.13;5074108;28;20039;-57
2022/04/04 00:43:37;;;;;;;8.13;4.32;;;;;;;-2.28;46.96;98507.22;5073981;28;20086;-56
2022/04/04 00:46:03;;;;;;;7.97;4.32;;;;;;;-2.31;46.50;98510.81;5056180;28;20028;-57
2022/04/04 00:48:29;;;;;;;10.65;4.05;;;;;;;-2.36;46.86;98511.03;5073818;28;20090;-57
2022/04/04 00:50:55;;;;;;;8.15;4.10;;;;;;;-2.46;46.05;98497.53;5073545;28;20390;-56
2022/04/04 00:53:22;;;;;;;7.30;3.75;;;;;;;-2.42;46.41;98505.22;5074123;28;20067;-58
2022/04/04 00:55:48;;;;;;;8.35;4.22;;;;;;;-2.45;47.04;98512.31;5073829;28;20382;-57
2022/04/04 00:58:14;;;;;;;6.82;4.57;;;;;;;-2.45;46.40;98517.56;5073462;28;20916;-55
2022/04/04 01:00:45;;;;;;;9.90;4.35;;;;;;;-2.43;46.25;98519.25;5073436;28;20031;-56
2022/04/04 01:03:10;;;;;;;6.18;4.00;;;;;;;-2.47;46.75;98505.47;5073644;28;20033;-55
2022/04/04 01:05:36;;;;;;;9.68;4.47;;;;;;;-2.56;45.68;98498.03;5073608;28;20342;-56
2022/04/04 01:08:01;;;;;;;8.00;4.32;;;;;;;-2.53;46.89;98509.22;5073173;28;20453;-52
2022/04/04 01:10:28;;;;;;;8.90;4.43;;;;;;;-2.51;46.83;98507.38;5073482;28;20024;-56
2022/04/04 01:12:54;;;;;;;10.95;4.20;;;;;;;-2.47;47.44;98519.41;5074244;28;20107;-54
2022/04/04 01:15:23;;;;;;;9.80;4.13;;;;;;;-2.45;47.48;98514.94;5073806;28;20032;-59
2022/04/04 01:17:50;;;;;;;8.57;4.38;;;;;;;-2.44;47.57;98526.28;5072974;28;20116;-57
2022/04/04 01:20:15;;;;;;;7.85;4.38;;;;;;;-2.46;46.26;98530.75;5073129;28;20028;-52
2022/04/04 01:22:46;;;;;;;6.43;4.22;;;;;;;-2.43;46.70;98529.75;5073165;28;20054;-56
2022/04/04 01:25:12;;;;;;;6.40;4.10;;;;;;;-2.47;47.13;98535.13;5073332;28;20032;-56
2022/04/04 01:27:39;;;;;;;9.02;4.45;;;;;;;-2.53;46.55;98511.00;5073016;28;20112;-58
2022/04/04 01:30:07;;;;;;;8.13;4.75;;;;;;;-2.50;47.45;98523.97;5072998;28;20025;-54
2022/04/04 01:32:34;;;;;;;5.07;3.72;;;;;;;-2.53;46.62;98524.97;5073003;28;20025;-52
2022/04/04 01:35:00;;;;;;;7.13;4.32;;;;;;;-2.48;46.84;98532.59;5073012;28;20024;-51
2022/04/04 01:37:26;;;;;;;8.63;4.47;;;;;;;-2.50;47.26;98521.34;5072691;28;20032;-58
2022/04/04 01:39:51;;;;;;;6.60;4.15;;;;;;;-2.48;47.09;98537.84;5073010;28;20363;-56
2022/04/04 01:42:17;;;;;;;10.02;4.35;;;;;;;-2.53;48.18;98524.97;5055457;28;20486;-55
2022/04/04 01:44:43;;;;;;;7.78;4.45;;;;;;;-2.71;47.75;98494.38;5072959;28;20050;-54
2022/04/04 01:47:08;;;;;;;7.60;4.80;;;;;;;-2.49;48.19;98537.00;5072525;28;20028;-55
2022/04/04 01:49:34;;;;;;;7.47;4.15;;;;;;;-2.52;48.42;98536.31;5054630;28;20025;-54
2022/04/04 01:51:59;;;;;;;9.23;4.80;;;;;;;-2.50;48.67;98535.28;5055188;28;20085;-50
2022/04/04 01:54:25;;;;;;;9.35;4.32;;;;;;;-2.53;48.45;98539.81;5073353;28;20036;-52
2022/04/04 01:56:50;;;;;;;9.10;4.95;;;;;;;-2.52;48.70;98544.16;5072587;28;20058;-52
2022/04/04 01:59:16;;;;;;;10.88;5.03;;;;;;;-2.53;48.91;98545.06;5072547;28;20040;-52
2022/04/04 02:01:42;;;;;;;7.25;4.30;;;;;;;-2.56;49.07;98535.59;5072279;28;20029;-55
2022/04/04 02:04:10;;;;;;;8.20;4.63;;;;;;;-2.53;48.81;98543.31;5072423;28;20469;-57
2022/04/04 02:06:35;;;;;;;9.02;5.30;;;;;;;-2.53;48.78;98542.44;5071966;28;20033;-59
2022/04/04 02:09:01;;;;;;;10.10;4.90;;;;;;;-2.54;48.60;98554.72;5072340;28;20043;-54
2022/04/04 02:11:26;;;;;;;9.38;4.80;;;;;;;-2.56;48.90;98551.31;5072706;28;20379;-55
2022/04/04 02:13:52;;;;;;;7.90;4.75;;;;;;;-2.65;48.84;98538.66;5072194;28;20040;-58
2022/04/04 02:16:18;;;;;;;11.63;5.43;;;;;;;-2.57;49.40;98551.38;5071911;28;20025;-54
2022/04/04 02:18:43;;;;;;;8.10;4.95;;;;;;;-2.58;49.14;98558.41;5072608;28;20032;-57
2022/04/04 02:21:09;;;;;;;8.82;5.05;;;;;;;-2.64;48.99;98548.22;5071709;28;20036;-56
2022/04/04 02:23:35;;;;;;;10.45;5.07;;;;;;;-2.58;49.03;98568.03;5072106;28;20028;-55
2022/04/04 02:26:01;;;;;;;9.93;5.47;;;;;;;-2.58;49.27;98557.53;5072156;28;20032;-55
2022/04/04 02:28:28;;;;;;;7.53;4.85;;;;;;;-2.60;49.34;98557.63;5071846;28;20424;-54
2022/04/04 02:30:54;;;;;;;13.60;5.78;;;;;;;-2.64;49.56;98556.06;5072007;28;20044;-54
2022/04/04 02:33:21;;;;;;;8.23;5.38;;;;;;;-2.61;49.35;98566.41;5072042;28;20474;-54
2022/04/04 02:35:50;;;;;;;10.57;5.80;;;;;;;-2.63;49.32;98569.09;5071492;28;20029;-54
2022/04/04 02:38:16;;;;;;;9.23;5.40;;;;;;;-2.68;49.93;98567.59;5071252;28;20072;-53
2022/04/04 02:40:41;;;;;;;10.85;4.93;;;;;;;-2.64;49.17;98577.03;5072392;28;20035;-56
2022/04/04 02:43:08;;;;;;;9.77;5.45;;;;;;;-2.65;49.80;98576.19;5070708;28;20044;-51
2022/04/04 02:45:34;;;;;;;9.23;5.38;;;;;;;-2.70;49.81;98572.94;5071363;28;20115;-52
2022/04/04 02:48:00;;;;;;;11.85;5.85;;;;;;;-2.71;50.32;98584.34;5071140;28;20436;-53
2022/04/04 02:50:26;;;;;;;8.98;5.13;;;;;;;-2.75;49.67;98588.84;5072034;28;20028;-56
2022/04/04 02:52:52;;;;;;;10.30;5.40;;;;;;;-2.85;49.86;98571.88;5071425;28;20032;-55
2022/04/04 02:58:02;;;;;;;14.25;6.95;;;;;;;-2.84;50.42;98588.41;5071509;28;20060;-54
2022/04/04 03:00:28;;;;;;;18.65;6.72;;;;;;;-2.92;50.05;98589.63;5054213;28;20530;-53
2022/04/04 03:02:54;;;;;;;11.85;6.70;;;;;;;-2.93;50.81;98594.91;5070864;28;20028;-56
2022/04/04 03:05:20;;;;;;;11.30;6.47;;;;;;;-2.94;50.40;98599.31;5053179;28;20059;-57
2022/04/04 03:07:46;;;;;;;12.73;7.18;;;;;;;-2.96;50.63;98598.53;5053629;28;20079;-54
2022/04/04 03:10:13;;;;;;;12.20;6.65;;;;;;;-2.95;50.45;98604.63;5071347;28;20028;-49
2022/04/04 03:12:45;;;;;;;11.85;6.78;;;;;;;-2.96;50.82;98616.00;5071138;28;20114;-58
2022/04/04 03:15:16;;;;;;;12.05;6.80;;;;;;;-3.20;50.68;98583.00;5070939;28;20545;-57
2022/04/04 03:17:44;;;;;;;12.88;6.25;;;;;;;-2.98;50.24;98623.97;5071059;28;20032;-58
2022/04/04 03:20:11;;;;;;;12.38;6.63;;;;;;;-2.94;50.62;98616.78;5071005;28;20036;-55
2022/04/04 03:22:42;;;;;;;11.80;6.57;;;;;;;-2.94;50.80;98624.66;5070936;28;20029;-55
2022/04/04 03:25:09;;;;;;;12.35;6.55;;;;;;;-2.92;50.79;98625.44;5070685;28;20032;-57
2022/04/04 03:27:36;;;;;;;12.98;6.95;;;;;;;-2.86;49.85;98626.94;5071128;28;20081;-54
2022/04/04 03:30:03;;;;;;;13.70;6.88;;;;;;;-2.81;50.32;98631.06;5071042;28;20033;-55
2022/04/04 03:32:29;;;;;;;13.32;7.78;;;;;;;-2.77;50.74;98623.91;5071059;28;20047;-54
2022/04/04 03:34:54;;;;;;;15.82;7.30;;;;;;;-2.80;50.05;98603.06;5070520;28;20394;-58
2022/04/04 03:37:20;;;;;;;17.42;8.18;;;;;;;-2.58;49.46;98625.66;5070583;28;20100;-54
2022/04/04 03:39:45;;;;;;;22.05;8.43;;;;;;;-2.49;49.31;98631.34;5071178;28;20040;-56
2022/04/04 03:42:11;;;;;;;16.10;8.30;;;;;;;-2.42;49.62;98623.19;5070267;28;20029;-57
2022/04/04 03:44:36;;;;;;;15.88;7.40;;;;;;;-2.29;49.25;98631.31;5070548;28;20036;-54
2022/04/04 03:47:02;;;;;;;15.90;7.82;;;;;;;-2.18;49.28;98631.69;5070793;28;20027;-57
2022/04/04 03:49:28;;;;;;;19.20;7.35;;;;;;;-2.06;48.54;98628.47;5070433;28;20382;-57
2022/04/04 03:51:53;;;;;;;13.07;6.93;;;;;;;-1.89;48.04;98627.66;5070099;28;20032;-57
2022/04/04 03:54:19;;;;;;;18.17;7.30;;;;;;;-1.70;48.29;98631.97;5070166;28;20119;-58
2022/04/04 03:56:46;;;;;;;14.45;6.97;;;;;;;-1.50;47.54;98630.16;5070167;28;20024;-56
2022/04/04 03:59:12;;;;;;;11.55;6.88;;;;;;;-1.24;47.30;98633.22;5070168;28;20016;-59
2022/04/04 04:01:39;;;;;;;11.65;6.72;;;;;;;-1.01;46.56;98634.69;5069964;28;20127;-58
2022/04/04 04:04:04;;;;;;;15.32;7.55;;;;;;;-0.76;46.18;98628.13;5070116;28;20036;-59
2022/04/04 04:06:31;;;;;;;12.65;6.72;;;;;;;-0.52;45.46;98633.00;5069686;28;20036;-59
2022/04/04 04:08:58;;;;;;;11.18;6.15;;;;;;;-0.03;44.54;98642.56;5069506;28;20082;-61
2022/04/04 04:11:24;;;;;;;10.82;6.90;;;;;;;0.50;43.25;98644.88;5069769;28;20043;-56
2022/04/04 04:13:50;;;;;;;15.02;6.90;;;;;;;1.16;42.29;98645.34;5070312;28;20038;-55
2022/04/04 04:16:15;;;;;;;12.80;7.10;;;;;;;1.89;40.36;98637.38;5070259;28;20029;-58
2022/04/04 04:18:42;;;;;;;12.20;6.68;;;;;;;2.49;38.70;98640.56;5070215;28;20039;-57
2022/04/04 04:21:09;;;;;;;11.25;6.95;;;;;;;2.99;37.87;98644.25;5070099;28;20036;-56
2022/04/04 04:23:39;;;;;;;13.68;6.95;;;;;;;3.35;37.62;98639.16;5070463;28;20052;-60
2022/04/04 04:26:06;;;;;;;15.30;7.28;;;;;;;3.42;36.76;98629.81;5069463;28;20028;-57
2022/04/04 04:28:32;;;;;;;12.80;7.03;;;;;;;3.29;36.30;98591.97;5069951;28;20094;-57
2022/04/04 04:30:59;;;;;;;12.40;7.28;;;;;;;3.68;35.78;98635.06;5069839;28;20025;-60
2022/04/04 04:33:25;;;;;;;9.90;6.28;;;;;;;3.92;35.34;98641.38;5069585;28;20440;-55
2022/04/04 04:35:51;;;;;;;10.85;6.53;;;;;;;3.99;34.67;98632.88;5070328;28;20032;-57
2022/04/04 04:38:17;;;;;;;10.95;6.93;;;;;;;3.67;34.88;98584.91;5069963;28;20048;-52
2022/04/04 04:40:44;;;;;;;14.73;6.80;;;;;;;4.18;34.32;98643.94;5069591;28;20148;-52
2022/04/04 04:43:09;;;;;;;11.75;7.20;;;;;;;4.30;33.95;98640.38;5069869;28;20047;-54
2022/04/04 04:45:35;;;;;;;11.73;6.90;;;;;;;4.65;33.22;98644.84;5052752;28;20033;-54
2022/04/04 04:48:01;;;;;;;10.82;6.75;;;;;;;4.92;32.38;98588.03;5069767;28;20102;-55
2022/04/04 04:50:27;;;;;;;10.60;6.82;;;;;;;5.83;31.42;98613.69;5069573;28;20928;-59
2022/04/04 04:52:54;;;;;;;13.23;7.82;;;;;;;7.11;30.10;98636.88;5069518;28;20031;-59
2022/04/04 04:55:21;;;;;;;13.85;6.88;;;;;;;8.25;28.82;98645.72;5069433;28;20040;-55
2022/04/04 04:57:48;;;;;;;11.23;7.43;;;;;;;9.26;26.82;98644.56;5069777;28;20074;-59
2022/04/04 05:00:16;;;;;;;10.88;6.85;;;;;;;10.08;26.42;98635.94;5069808;28;20039;-59
2022/04/04 05:02:42;;;;;;;12.30;6.97;;;;;;;10.75;25.18;98647.16;5070246;28;20031;-58
2022/04/04 05:05:08;;;;;;;11.32;6.90;;;;;;;11.28;24.71;98647.19;5070098;28;20032;-64
2022/04/04 05:07:34;;;;;;;10.30;7.05;;;;;;;11.87;23.14;98632.25;5054556;28;20067;-57
2022/04/04 05:10:00;;;;;;;11.98;7.07;;;;;;;12.34;22.92;98633.63;5073062;28;20529;-58
2022/04/04 05:12:25;;;;;;;10.50;6.82;;;;;;;12.43;22.73;98648.72;5073409;28;20056;-57
2022/04/04 05:14:51;;;;;;;10.38;6.80;;;;;;;12.32;22.94;98649.03;5073847;28;20033;-56
2022/04/04 05:17:16;;;;;;;9.60;6.63;;;;;;;12.20;23.01;98641.28;5073003;28;20410;-55
2022/04/04 05:19:42;;;;;;;11.07;6.82;;;;;;;11.91;23.37;98647.88;5072768;28;20367;-55
2022/04/04 05:22:08;;;;;;;9.32;6.70;;;;;;;11.64;23.12;98646.22;5073610;28;20405;-57
2022/04/04 05:24:35;;;;;;;13.15;7.60;;;;;;;11.90;23.13;98650.69;5073761;28;20031;-56
2022/04/04 05:27:00;;;;;;;13.55;6.85;;;;;;;12.59;22.72;98645.22;5072962;28;20083;-57
2022/04/04 05:29:29;;;;;;;12.48;7.13;;;;;;;13.45;21.58;98620.66;5072787;28;20056;-60
2022/04/04 05:31:56;;;;;;;8.93;7.10;;;;;;;14.72;20.65;98637.72;5073323;28;20028;-59
2022/04/04 05:34:25;;;;;;;13.93;7.13;;;;;;;16.03;18.98;98650.06;5073200;28;20393;-56
2022/04/04 05:36:50;;;;;;;10.25;7.38;;;;;;;17.54;17.60;98636.75;5072813;28;20024;-60
2022/04/04 05:39:16;;;;;;;13.15;7.65;;;;;;;19.18;16.04;98646.91;5054460;28;20083;-58
2022/04/04 05:41:42;;;;;;;14.52;7.95;;;;;;;20.42;15.02;98639.06;5073043;28;20037;-60
2022/04/04 05:44:07;;;;;;;12.27;7.82;;;;;;;21.34;13.71;98640.50;5073272;28;20047;-59
2022/04/04 05:46:34;;;;;;;12.70;8.63;;;;;;;22.31;13.62;98643.66;5072496;28;20503;-61
2022/04/04 05:49:00;;;;;;;11.75;8.23;;;;;;;22.60;13.00;98639.31;5054665;28;20166;-60
2022/04/04 05:51:28;;;;;;;13.82;7.72;;;;;;;22.89;12.77;98630.47;5072386;28;20390;-59
2022/04/04 05:53:54;;;;;;;10.88;8.27;;;;;;;23.35;11.85;98628.91;5072693;28;20040;-61
2022/04/04 05:56:21;;;;;;;13.50;7.90;;;;;;;23.92;12.39;98621.97;5072779;28;20089;-61
2022/04/04 05:58:48;;;;;;;11.80;8.40;;;;;;;24.61;11.76;98636.72;5072197;28;20039;-60
2022/04/04 06:01:14;;;;;;;13.07;7.95;;;;;;;25.48;10.93;98633.84;5072987;28;20059;-61
2022/04/04 06:03:40;;;;;;;13.43;8.30;;;;;;;26.10;10.18;98628.34;5072683;28;20036;-61
2022/04/04 06:06:05;;;;;;;10.55;8.40;;;;;;;26.59;9.65;98618.47;5071123;28;20059;-63
2022/04/04 06:08:31;;;;;;;12.90;8.35;;;;;;;27.31;9.36;98626.53;5053580;28;20025;-60
2022/04/04 06:10:57;;;;;;;10.55;8.10;;;;;;;27.79;8.96;98624.66;5054725;28;20098;-60
2022/04/04 06:13:23;;;;;;;12.70;7.45;;;;;;;27.78;8.30;98622.19;5072584;28;20104;-62
2022/04/04 06:15:49;;;;;;;11.95;7.57;;;;;;;27.85;8.48;98625.50;5073047;28;20112;-63
2022/04/04 06:18:15;;;;;;;11.90;7.32;;;;;;;27.89;8.56;98629.38;5072157;28;20032;-63
2022/04/04 06:20:41;;;;;;;12.65;7.15;;;;;;;27.87;8.46;98625.25;5072457;28;20029;-63
2022/04/04 06:23:08;;;;;;;11.63;8.07;;;;;;;27.83;8.43;98633.19;5054557;28;20436;-62
2022/04/04 06:25:34;;;;;;;10.68;6.90;;;;;;;27.79;8.73;98634.84;5071995;28;20036;-61
2022/04/04 06:27:59;;;;;;;8.50;7.40;;;;;;;27.41;7.81;98618.38;5071893;28;20028;-62
2022/04/04 06:30:26;;;;;;;11.48;7.72;;;;;;;27.52;8.27;98638.53;5072045;28;20567;-60
2022/04/04 06:32:52;;;;;;;10.48;7.03;;;;;;;27.74;7.57;98623.81;5071926;28;20521;-61
2022/04/04 06:35:18;;;;;;;10.10;6.85;;;;;;;28.13;7.56;98631.66;5071630;28;20032;-62
2022/04/04 06:37:45;;;;;;;10.10;6.88;;;;;;;28.59;7.50;98641.19;5071228;28;20127;-62
2022/04/04 06:40:12;;;;;;;11.35;7.07;;;;;;;28.74;8.01;98605.44;5072367;28;20051;-61
2022/04/04 06:42:40;;;;;;;9.80;6.60;;;;;;;29.49;7.87;98630.81;5071742;28;20044;-60
2022/04/04 06:45:07;;;;;;;7.95;6.28;;;;;;;29.31;7.74;98633.00;5071246;28;20068;-60
2022/04/04 06:47:33;;;;;;;9.88;6.30;;;;;;;28.70;7.16;98636.53;5062453;28;20087;-58
2022/04/04 06:49:59;;;;;;;10.02;6.93;;;;;;;27.68;7.78;98617.44;5069635;28;20075;-60
2022/04/04 06:52:27;;;;;;;8.85;7.03;;;;;;;27.40;8.66;98624.13;5071512;28;20458;-60
2022/04/04 06:54:54;;;;;;;8.77;6.15;;;;;;;27.57;8.50;98645.97;5070937;28;20089;-63
2022/04/04 06:57:20;;;;;;;8.63;5.95;;;;;;;27.37;8.51;98634.53;5071850;28;20067;-62
2022/04/04 06:59:46;;;;;;;9.00;5.38;;;;;;;26.72;8.84;98637.25;5071724;28;20036;-62
2022/04/04 07:02:12;;;;;;;6.40;5.15;;;;;;;26.47;8.29;98637.84;5071551;28;20081;-62
2022/04/04 07:04:40;;;;;;;6.47;5.10;;;;;;;26.64;8.63;98632.25;5070865;28;20028;-61
2022/04/04 07:07:06;;;;;;;7.65;5.22;;;;;;;26.87;8.34;98635.78;5071628;28;20063;-65
2022/04/04 07:09:32;;;;;;;8.75;5.57;;;;;;;27.31;7.89;98638.34;5071589;28;20107;-65
2022/04/04 07:11:58;;;;;;;6.72;5.22;;;;;;;27.70;7.93;98644.66;5071166;28;20167;-64
2022/04/04 07:14:27;;;;;;;8.38;5.63;;;;;;;28.38;7.21;98613.63;5053350;28;20090;-64
2022/04/04 07:16:52;;;;;;;7.47;5.32;;;;;;;29.35;7.13;98630.53;5070371;28;20113;-66
2022/04/04 07:19:22;;;;;;;6.22;4.95;;;;;;;30.04;6.91;98630.09;5070586;28;20083;-63
2022/04/04 07:21:47;;;;;;;7.18;5.03;;;;;;;30.59;6.59;98630.09;5071041;28;20054;-64
2022/04/04 07:24:13;;;;;;;7.22;5.30;;;;;;;30.94;6.39;98630.16;5071208;28;20035;-66
2022/04/04 07:26:38;;;;;;;10.32;5.47;;;;;;;30.94;7.03;98624.63;5036227;28;20166;-65
2022/04/04 07:29:04;;;;;;;8.00;4.90;;;;;;;30.68;6.48;98626.75;5070657;28;20788;-64
2022/04/04 07:31:29;;;;;;;7.78;5.18;;;;;;;30.39;6.94;98632.97;5070255;28;20111;-64
2022/04/04 07:33:55;;;;;;;7.25;4.63;;;;;;;30.36;5.62;98631.59;5052769;28;20035;-66
2022/04/04 07:36:21;;;;;;;7.18;4.53;;;;;;;29.91;5.93;98614.97;5070656;28;20074;-62
2022/04/04 07:38:47;;;;;;;5.97;4.65;;;;;;;29.07;6.61;98596.94;5070770;28;20045;-64
2022/04/04 07:41:12;;;;;;;7.40;4.18;;;;;;;29.07;6.33;98619.78;5053138;28;20029;-63
2022/04/04 07:43:38;;;;;;;6.25;4.07;;;;;;;28.81;6.62;98604.34;5070937;28;20035;-63
2022/04/04 07:46:04;;;;;;;7.57;4.03;;;;;;;27.92;7.25;98617.84;5068915;28;20466;-64
2022/04/04 07:48:32;;;;;;;5.22;4.00;;;;;;;27.25;7.24;98614.69;5070215;28;20033;-62
2022/04/04 07:50:58;;;;;;;4.70;3.97;;;;;;;26.54;7.43;98615.69;5052283;28;20052;-63
2022/04/04 07:53:23;;;;;;;8.40;4.53;;;;;;;26.04;7.87;98600.03;5070202;28;20032;-66
2022/04/04 07:55:49;;;;;;;5.72;4.40;;;;;;;25.86;7.58;98612.16;5070510;28;20385;-63
2022/04/04 07:58:17;;;;;;;4.90;4.38;;;;;;;25.56;8.60;98616.16;5052825;28;20024;-69
2022/04/04 08:00:43;;;;;;;5.65;4.70;;;;;;;25.44;8.79;98601.69;5070506;28;20032;-64
2022/04/04 08:03:08;;;;;;;5.90;4.70;;;;;;;25.14;8.67;98600.16;5066367;28;20028;-63
2022/04/04 08:05:33;;;;;;;6.03;4.72;;;;;;;24.02;9.02;98610.44;5069646;28;20025;-61
2022/04/04 08:07:59;;;;;;;6.63;3.50;;;;;;;22.19;10.12;98584.47;5052285;28;20044;-61
2022/04/04 08:10:25;;;;;;;5.18;3.90;;;;;;;20.26;11.58;98592.31;5070049;28;20033;-61
2022/04/04 08:12:51;;;;;;;4.68;4.28;;;;;;;18.60;12.34;98612.22;5052027;28;20077;-62
2022/04/04 08:15:17;;;;;;;5.88;4.25;;;;;;;17.16;13.27;98618.19;5052573;28;20389;-64
2022/04/04 08:17:43;;;;;;;6.63;4.40;;;;;;;15.88;14.83;98596.09;5070316;28;20029;-63
2022/04/04 08:20:09;;;;;;;8.18;4.50;;;;;;;15.03;15.73;98609.84;5070367;28;20113;-64
2022/04/04 08:22:42;;;;;;;7.45;4.88;;;;;;;14.53;16.27;98611.22;5070084;28;20020;-65
2022/04/04 08:25:08;;;;;;;6.00;4.47;;;;;;;13.99;16.04;98615.59;5032774;28;20417;-65
2022/04/04 08:27:35;;;;;;;6.85;4.85;;;;;;;13.52;17.59;98612.75;5070181;28;20032;-62
2022/04/04 08:30:05;;;;;;;7.38;4.53;;;;;;;13.20;16.94;98603.72;5069398;28;20626;-62
2022/04/04 08:32:33;;;;;;;6.57;4.75;;;;;;;12.78;17.99;98611.84;5050660;28;20051;-62
2022/04/04 08:34:59;;;;;;;6.43;4.90;;;;;;;12.36;17.57;98615.50;5052054;28;20028;-63
2022/04/04 08:37:24;;;;;;;11.07;4.65;;;;;;;11.75;19.44;98572.72;5069456;28;20028;-63
2022/04/04 08:39:50;;;;;;;6.32;4.13;;;;;;;11.78;18.17;98601.88;5051379;28;20033;-62
2022/04/04 08:42:17;;;;;;;6.53;4.18;;;;;;;11.43;18.37;98606.44;5054399;28;20047;-62
2022/04/04 08:44:44;;;;;;;6.55;4.10;;;;;;;11.27;19.68;98610.69;5074245;28;20470;-64
2022/04/04 08:47:09;;;;;;;5.20;3.75;;;;;;;11.13;20.27;98603.25;5073565;28;20039;-62
2022/04/04 08:49:35;;;;;;;5.35;3.83;;;;;;;11.00;19.25;98596.47;5055670;28;20124;-62
2022/04/04 08:52:01;;;;;;;6.63;3.83;;;;;;;10.75;19.83;98595.47;5035872;28;20037;-62
2022/04/04 08:54:26;;;;;;;6.38;3.10;;;;;;;10.53;19.41;98599.44;5036086;28;20029;-62
2022/04/04 08:56:52;;;;;;;5.20;3.50;;;;;;;10.45;19.57;98592.16;5028359;28;20029;-64
2022/04/04 08:59:17;;;;;;;5.57;3.47;;;;;;;10.43;19.90;98600.38;5046391;28;20071;-59
2022/04/04 09:01:43;;;;;;;6.72;3.85;;;;;;;10.27;20.30;98601.03;5038046;28;20029;-62
2022/04/04 09:04:08;;;;;;;7.72;4.32;;;;;;;10.39;19.89;98598.13;5073964;28;20021;-63
2022/04/04 09:06:52;;;;;;;5.80;3.20;;;;;;;10.48;20.21;98603.41;5055536;28;20386;-62
2022/04/04 09:09:24;;;;;;;5.22;3.03;;;;;;;10.29;20.57;98606.22;5073426;28;20131;-62
2022/04/04 09:12:11;;;;;;;3.10;2.60;;;;;;;10.04;20.32;98592.59;5055629;28;20051;-67
2022/04/04 09:14:54;;;;;;;2.75;2.08;;;;;;;9.65;20.69;98600.84;5072959;28;20044;-65
2022/04/04 09:17:30;;;;;;;2.95;1.73;;;;;;;9.19;21.58;98609.59;5073086;28;20052;-65
2022/04/04 09:19:56;;;;;;;2.95;1.60;;;;;;;8.99;21.66;98600.78;5038630;28;20032;-64
2022/04/04 09:22:22;;;;;;;2.10;1.70;;;;;;;8.43;22.07;98515.19;5055491;28;20033;-63
2022/04/04 09:24:50;;;;;;;1.80;1.50;;;;;;;9.02;21.13;98601.34;5073003;28;20045;-62
2022/04/04 09:27:21;;;;;;;2.30;1.70;;;;;;;9.00;21.71;98603.31;5073175;28;20028;-65
2022/04/04 09:29:49;;;;;;;6.22;2.05;;;;;;;8.78;21.62;98617.81;5034934;28;20036;-59
2022/04/04 09:32:15;;;;;;;2.30;1.83;;;;;;;8.55;23.55;98601.28;5069844;28;20033;-61
2022/04/04 09:34:57;;;;;;;2.60;1.70;;;;;;;8.69;22.65;98614.19;5072641;28;20036;-62
2022/04/04 09:37:24;;;;;;;3.40;2.58;;;;;;;8.70;21.98;98607.00;5072071;28;20036;-64
2022/04/04 09:39:51;;;;;;;1.80;1.35;;;;;;;8.59;21.53;98600.00;5054783;28;20028;-64
2022/04/04 09:42:18;;;;;;;3.08;1.50;;;;;;;8.41;21.56;98614.00;5054213;28;20035;-61
2022/04/04 09:45:17;;;;;;;1.77;1.48;;;;;;;8.41;22.71;98610.50;5071912;28;20028;-64
2022/04/04 09:47:55;;;;;;;4.55;1.45;;;;;;;8.22;22.61;98608.69;5017748;28;20370;-62
2022/04/04 09:50:37;;;;;;;3.88;1.60;;;;;;;8.13;23.50;98608.50;5072477;28;20054;-64
2022/04/04 09:53:17;;;;;;;3.05;1.70;;;;;;;8.19;23.37;98612.44;5072773;28;20040;-62
2022/04/04 09:55:46;;;;;;;5.10;1.70;;;;;;;8.30;23.24;98616.81;5072569;28;20398;-61
2022/04/04 09:58:15;;;;;;;3.95;1.98;;;;;;;8.32;23.92;98612.19;5072545;28;20040;-57
2022/04/04 10:00:42;;;;;;;2.90;1.80;;;;;;;8.48;23.57;98603.63;5072810;28;20497;-58
2022/04/04 10:03:12;;;;;;;2.83;1.67;;;;;;;8.42;22.72;98615.69;5071656;28;20028;-55
2022/04/04 10:05:42;;;;;;;6.35;1.95;;;;;;;8.27;23.00;98617.91;5072566;28;20032;-58
2022/04/04 10:08:13;;;;;;;2.10;1.58;;;;;;;8.09;22.77;98615.09;5072531;28;20033;-59
2022/04/04 10:10:39;;;;;;;2.75;1.85;;;;;;;8.03;23.84;98605.81;5072518;28;20119;-60
2022/04/04 10:13:05;;;;;;;3.70;1.70;;;;;;;8.10;24.33;98602.63;5054233;28;20020;-66
2022/04/04 10:15:34;;;;;;;6.07;1.98;;;;;;;8.24;23.09;98602.22;5070748;28;20020;-58
2022/04/04 10:18:00;;;;;;;2.45;1.73;;;;;;;8.40;23.29;98614.97;5069819;28;20033;-62
2022/04/04 10:20:25;;;;;;;3.90;2.00;;;;;;;8.47;23.75;98613.47;5070887;28;20359;-60
2022/04/04 10:22:53;;;;;;;3.47;1.90;;;;;;;8.45;23.21;98612.75;5071372;28;20029;-63
2022/04/04 10:25:24;;;;;;;1.85;1.55;;;;;;;8.24;22.75;98610.22;5035295;28;20056;-62
2022/04/04 10:27:51;;;;;;;2.60;1.33;;;;;;;8.16;22.29;98620.72;5068855;28;20393;-64
2022/04/04 10:30:17;;;;;;;3.47;1.50;;;;;;;7.74;22.87;98560.50;5071453;28;20035;-63
2022/04/04 10:32:54;;;;;;;2.15;1.45;;;;;;;7.84;23.30;98603.97;5070475;28;20458;-63
2022/04/04 10:35:22;;;;;;;2.13;1.40;;;;;;;7.88;22.71;98617.88;5052860;28;20547;-63
2022/04/04 10:37:49;;;;;;;1.90;1.20;;;;;;;7.50;22.61;98575.00;5050545;28;20048;-62
2022/04/04 10:40:22;;;;;;;3.22;1.63;;;;;;;7.66;23.29;98613.59;5071521;28;20478;-60
2022/04/04 10:43:07;;;;;;;3.25;1.50;;;;;;;7.63;23.17;98608.53;5068357;28;20081;-62
2022/04/04 10:45:59;;;;;;;4.13;1.90;;;;;;;7.62;22.90;98613.03;5068030;28;20024;-63
2022/04/04 10:48:33;;;;;;;2.03;1.60;;;;;;;7.66;23.62;98602.94;5052360;28;20024;-62
2022/04/04 10:51:20;;;;;;;2.22;1.63;;;;;;;7.83;22.78;98604.94;5052701;28;20032;-61
2022/04/04 10:53:54;;;;;;;3.35;1.55;;;;;;;7.84;23.46;98601.31;5069891;28;20024;-61
2022/04/04 10:56:23;;;;;;;2.20;1.45;;;;;;;7.68;23.26;98596.50;5052524;28;20036;-67
2022/04/04 10:59:13;;;;;;;1.98;1.55;;;;;;;7.61;23.43;98595.38;5050385;28;20024;-63
2022/04/04 11:01:39;;;;;;;2.50;1.50;;;;;;;7.61;23.65;98601.53;5050883;28;20028;-65
2022/04/04 11:04:05;;;;;;;3.05;1.65;;;;;;;7.61;23.85;98584.72;5068948;28;20068;-62
2022/04/04 11:09:32;;;;;;;4.03;1.40;;;;;;;7.60;23.04;98583.84;5069103;28;20036;-63
2022/04/04 11:12:00;;;;;;;4.22;1.60;;;;;;;7.74;24.18;98603.94;5051100;28;20078;-63
2022/04/04 11:14:36;;;;;;;2.70;1.55;;;;;;;7.80;23.70;98599.91;5071037;28;20035;-63
2022/04/04 11:17:08;;;;;;;3.60;1.90;;;;;;;7.69;23.79;98597.31;5071207;28;20032;-64
2022/04/04 11:19:52;;;;;;;5.53;1.80;;;;;;;7.56;23.89;98590.44;5071220;28;20117;-62
2022/04/04 11:22:21;;;;;;;3.33;1.45;;;;;;;7.38;23.32;98589.38;5071100;28;20474;-60
2022/04/04 11:24:55;;;;;;;2.10;1.55;;;;;;;7.31;24.16;98581.94;5070956;28;20021;-63
2022/04/04 11:27:24;;;;;;;2.92;1.80;;;;;;;6.99;24.43;98548.31;5071226;28;20033;-62
2022/04/04 11:29:49;;;;;;;4.82;1.98;;;;;;;7.25;23.89;98589.59;5071189;28;20049;-55
2022/04/04 11:32:23;;;;;;;5.88;1.90;;;;;;;7.29;24.16;98581.22;5071067;28;20119;-63
2022/04/04 11:34:50;;;;;;;5.00;1.63;;;;;;;7.26;23.90;98581.50;5070761;28;20036;-59
2022/04/04 11:37:18;;;;;;;4.03;1.70;;;;;;;7.26;24.42;98592.16;5070847;28;20028;-62
2022/04/04 11:39:47;;;;;;;1.88;1.35;;;;;;;7.21;23.63;98591.69;5070523;28;20056;-57
2022/04/04 11:42:12;;;;;;;2.42;1.58;;;;;;;7.16;24.11;98585.91;5052946;28;20119;-61